createdAt,value
2017-10-16T00:01:36.973Z,14.70
2017-10-16T00:04:05.236Z,14.70
2017-10-16T00:06:33.961Z,14.70
2017-10-16T00:09:02.228Z,14.70
2017-10-16T00:11:30.517Z,14.70
2017-10-16T00:13:59.588Z,14.70
2017-10-16T00:16:27.985Z,14.70
2017-10-16T00:18:56.257Z,14.70
2017-10-16T00:21:24.561Z,14.70
2017-10-16T00:23:53.727Z,14.60
2017-10-16T00:26:22.010Z,14.60
2017-10-16T00:28:50.278Z,14.60
2017-10-16T00:31:18.664Z,14.50
2017-10-16T00:33:46.933Z,14.50
2017-10-16T00:36:15.209Z,14.50
2017-10-16T00:38:43.588Z,14.50
2017-10-16T00:41:11.868Z,14.50
2017-10-16T00:43:40.250Z,14.50
2017-10-16T00:46:08.554Z,14.50
2017-10-16T00:48:37.720Z,14.40
2017-10-16T00:51:05.997Z,14.40
2017-10-16T00:53:34.320Z,14.40
2017-10-16T00:56:02.601Z,14.30
2017-10-16T00:58:30.894Z,14.30
2017-10-16T01:00:59.149Z,14.30
2017-10-16T01:03:27.487Z,14.30
2017-10-16T01:05:55.761Z,14.30
2017-10-16T01:08:24.049Z,14.20
2017-10-16T01:10:52.421Z,14.20
2017-10-16T01:13:20.713Z,14.20
2017-10-16T01:15:48.986Z,14.20
2017-10-16T01:18:18.782Z,14.10
2017-10-16T01:20:47.056Z,14.10
2017-10-16T01:23:15.341Z,14.10
2017-10-16T01:25:43.627Z,14.10
2017-10-16T01:28:12.010Z,14.10
2017-10-16T01:30:40.282Z,14.00
2017-10-16T01:33:08.649Z,14.00
2017-10-16T01:35:36.924Z,14.00
2017-10-16T01:38:05.202Z,14.00
2017-10-16T01:40:33.480Z,14.00
2017-10-16T01:43:01.765Z,14.00
2017-10-16T01:45:30.035Z,13.90
2017-10-16T01:47:58.316Z,13.90
2017-10-16T01:50:26.593Z,13.90
2017-10-16T01:52:54.903Z,13.90
2017-10-16T01:55:23.967Z,13.90
2017-10-16T01:57:53.882Z,13.90
2017-10-16T02:00:22.152Z,13.90
2017-10-16T02:02:50.426Z,13.90
2017-10-16T02:05:18.713Z,13.80
2017-10-16T02:07:47.085Z,13.80
2017-10-16T02:10:15.369Z,13.80
2017-10-16T02:12:43.648Z,13.80
2017-10-16T02:15:11.929Z,13.80
2017-10-16T02:17:40.206Z,13.70
2017-10-16T02:20:08.499Z,13.70
2017-10-16T02:22:36.778Z,13.70
2017-10-16T02:25:05.842Z,13.70
2017-10-16T02:27:34.090Z,13.60
2017-10-16T02:30:02.392Z,13.60
2017-10-16T02:32:30.669Z,13.60
2017-10-16T02:34:58.954Z,13.60
2017-10-16T02:37:27.230Z,13.60
2017-10-16T02:39:55.515Z,13.60
2017-10-16T02:42:23.785Z,13.60
2017-10-16T02:44:52.063Z,13.60
2017-10-16T02:47:20.371Z,13.50
2017-10-16T02:49:48.636Z,13.50
2017-10-16T02:52:16.897Z,13.50
2017-10-16T02:54:45.194Z,13.50
2017-10-16T02:57:14.221Z,13.40
2017-10-16T02:59:42.540Z,13.40
2017-10-16T03:02:10.796Z,13.40
2017-10-16T03:04:39.096Z,13.40
2017-10-16T03:07:07.367Z,13.40
2017-10-16T03:09:35.653Z,13.40
2017-10-16T03:12:03.908Z,13.40
2017-10-16T03:14:32.197Z,13.30
2017-10-16T03:17:00.460Z,13.30
2017-10-16T03:19:28.757Z,13.40
2017-10-16T03:21:57.043Z,13.30
2017-10-16T03:24:25.313Z,13.40
2017-10-16T03:26:53.595Z,13.40
2017-10-16T03:29:21.890Z,13.30
2017-10-16T03:31:50.929Z,13.40
2017-10-16T03:34:19.234Z,13.30
2017-10-16T03:36:47.555Z,13.40
2017-10-16T03:39:16.584Z,13.40
2017-10-16T03:41:44.871Z,13.30
2017-10-16T03:44:13.145Z,13.30
2017-10-16T03:46:42.263Z,13.30
2017-10-16T03:49:10.539Z,13.30
2017-10-16T03:51:38.916Z,13.30
2017-10-16T03:54:07.193Z,13.30
2017-10-16T03:56:36.207Z,13.30
2017-10-16T03:59:04.483Z,13.30
2017-10-16T04:01:32.865Z,13.30
2017-10-16T04:04:01.138Z,13.30
2017-10-16T04:06:29.499Z,13.30
2017-10-16T04:08:57.785Z,13.20
2017-10-16T04:11:27.581Z,13.20
2017-10-16T04:13:55.845Z,13.20
2017-10-16T04:16:24.138Z,13.20
2017-10-16T04:18:52.434Z,13.20
2017-10-16T04:21:20.805Z,13.20
2017-10-16T04:23:49.078Z,13.10
2017-10-16T04:26:17.365Z,13.10
2017-10-16T04:28:45.636Z,13.10
2017-10-16T04:31:14.011Z,13.10
2017-10-16T04:33:42.264Z,13.10
2017-10-16T04:36:10.569Z,13.10
2017-10-16T04:38:38.844Z,13.10
2017-10-16T04:41:07.125Z,13.00
2017-10-16T04:43:35.404Z,13.00
2017-10-16T04:46:04.457Z,13.00
2017-10-16T04:48:32.725Z,12.90
2017-10-16T04:51:01.014Z,12.90
2017-10-16T04:53:29.285Z,12.90
2017-10-16T04:55:57.577Z,12.90
2017-10-16T04:58:25.845Z,12.90
2017-10-16T05:00:54.168Z,12.90
2017-10-16T05:03:22.437Z,12.80
2017-10-16T05:05:50.760Z,12.80
2017-10-16T05:08:19.827Z,12.70
2017-10-16T05:10:48.102Z,12.70
2017-10-16T05:13:16.465Z,12.70
2017-10-16T05:15:45.511Z,12.70
2017-10-16T05:18:13.849Z,12.60
2017-10-16T05:20:42.117Z,12.70
2017-10-16T05:23:10.493Z,12.70
2017-10-16T05:25:38.762Z,12.60
2017-10-16T05:28:07.064Z,12.60
2017-10-16T05:30:35.348Z,12.60
2017-10-16T05:33:04.424Z,12.80
2017-10-16T05:35:32.735Z,12.80
2017-10-16T05:38:01.032Z,12.70
2017-10-16T05:40:30.258Z,12.70
2017-10-16T05:43:00.435Z,12.70
2017-10-16T05:45:29.010Z,12.70
2017-10-16T05:47:58.918Z,12.70
2017-10-16T05:50:29.131Z,12.70
2017-10-16T05:52:57.513Z,12.70
2017-10-16T05:55:25.795Z,12.80
2017-10-16T05:57:54.095Z,12.80
2017-10-16T06:00:22.365Z,12.80
2017-10-16T06:02:51.441Z,12.90
2017-10-16T06:05:19.777Z,12.90
2017-10-16T06:07:48.871Z,12.80
2017-10-16T06:10:17.185Z,12.90
2017-10-16T06:12:45.484Z,12.80
2017-10-16T06:15:13.785Z,12.80
2017-10-16T06:17:43.622Z,12.80
2017-10-16T06:20:12.706Z,12.90
2017-10-16T06:22:41.000Z,12.80
2017-10-16T06:25:10.041Z,13.00
2017-10-16T06:27:38.341Z,13.00
2017-10-16T06:30:06.609Z,13.00
2017-10-16T06:32:34.908Z,13.10
2017-10-16T06:35:03.189Z,13.10
2017-10-16T06:37:31.574Z,13.10
2017-10-16T06:39:59.945Z,13.20
2017-10-16T06:42:28.246Z,13.20
2017-10-16T06:44:57.294Z,13.30
2017-10-16T06:47:25.598Z,13.20
2017-10-16T06:49:53.970Z,13.30
2017-10-16T06:52:22.268Z,13.30
2017-10-16T06:54:50.546Z,13.40
2017-10-16T06:57:18.901Z,13.40
2017-10-16T06:59:47.289Z,13.50
2017-10-16T07:02:15.666Z,13.60
2017-10-16T07:04:44.041Z,13.70
2017-10-16T07:07:12.515Z,13.70
2017-10-16T07:09:40.809Z,13.80
2017-10-16T07:12:09.091Z,13.80
2017-10-16T07:14:37.465Z,13.90
2017-10-16T07:17:05.842Z,14.00
2017-10-16T07:19:34.217Z,14.00
2017-10-16T07:22:02.496Z,14.10
2017-10-16T07:24:30.871Z,14.20
2017-10-16T07:26:59.148Z,14.30
2017-10-16T07:29:27.449Z,14.30
2017-10-16T07:31:56.496Z,14.50
2017-10-16T07:34:24.803Z,14.50
2017-10-16T07:36:53.173Z,14.60
2017-10-16T07:39:21.455Z,14.70
2017-10-16T07:41:49.731Z,14.80
2017-10-16T07:44:18.016Z,15.00
2017-10-16T07:46:46.290Z,15.10
2017-10-16T07:49:14.573Z,15.10
2017-10-16T07:51:43.609Z,15.40
2017-10-16T07:54:11.942Z,15.40
2017-10-16T07:56:40.283Z,15.50
2017-10-16T07:59:08.594Z,15.60
2017-10-16T08:01:36.967Z,15.70
2017-10-16T08:04:05.258Z,15.80
2017-10-16T08:06:33.538Z,15.90
2017-10-16T08:09:01.842Z,16.00
2017-10-16T08:11:30.903Z,16.20
2017-10-16T08:13:59.284Z,16.20
2017-10-16T08:16:27.658Z,16.30
2017-10-16T08:18:56.029Z,16.40
2017-10-16T08:21:24.317Z,16.50
2017-10-16T08:23:52.598Z,16.60
2017-10-16T08:26:20.867Z,16.70
2017-10-16T08:28:49.162Z,16.80
2017-10-16T08:31:17.424Z,16.80
2017-10-16T08:33:45.705Z,16.90
2017-10-16T08:36:13.973Z,17.00
2017-10-16T08:38:42.354Z,17.10
2017-10-16T08:41:11.433Z,17.30
2017-10-16T08:43:39.811Z,17.30
2017-10-16T08:46:08.100Z,17.40
2017-10-16T08:48:36.463Z,17.40
2017-10-16T08:51:04.725Z,17.60
2017-10-16T08:53:33.029Z,17.70
2017-10-16T08:56:01.295Z,17.80
2017-10-16T08:58:29.601Z,17.80
2017-10-16T09:00:57.953Z,17.90
2017-10-16T09:03:26.230Z,18.00
2017-10-16T09:05:54.486Z,18.10
2017-10-16T09:08:22.787Z,18.30
2017-10-16T09:10:51.061Z,18.40
2017-10-16T09:13:19.341Z,18.60
2017-10-16T09:15:47.629Z,18.60
2017-10-16T09:18:16.714Z,18.90
2017-10-16T09:20:45.095Z,18.90
2017-10-16T09:23:13.352Z,19.10
2017-10-16T09:25:41.657Z,19.20
2017-10-16T09:28:09.934Z,19.20
2017-10-16T09:30:38.209Z,19.30
2017-10-16T09:33:06.486Z,19.50
2017-10-16T09:35:34.771Z,19.60
2017-10-16T09:38:03.044Z,19.70
2017-10-16T09:40:31.417Z,19.70
2017-10-16T09:42:59.802Z,19.90
2017-10-16T09:45:28.072Z,19.90
2017-10-16T09:47:56.340Z,20.00
2017-10-16T09:50:24.629Z,20.10
2017-10-16T09:52:52.897Z,20.30
2017-10-16T09:55:21.174Z,20.30
2017-10-16T09:57:49.469Z,20.40
2017-10-16T10:00:17.849Z,20.50
2017-10-16T10:02:46.106Z,20.50
2017-10-16T10:05:14.417Z,20.70
2017-10-16T10:07:42.673Z,20.80
2017-10-16T10:10:10.953Z,20.90
2017-10-16T10:12:39.222Z,21.00
2017-10-16T10:15:07.596Z,21.10
2017-10-16T10:17:35.856Z,21.10
2017-10-16T10:20:04.149Z,21.30
2017-10-16T10:22:32.405Z,21.40
2017-10-16T10:25:00.701Z,21.50
2017-10-16T10:27:28.981Z,21.60
2017-10-16T10:29:57.354Z,21.60
2017-10-16T10:32:25.621Z,21.60
2017-10-16T10:34:53.889Z,21.60
2017-10-16T10:37:22.197Z,21.60
2017-10-16T10:39:50.481Z,21.70
2017-10-16T10:42:19.506Z,21.80
2017-10-16T10:44:48.553Z,21.80
2017-10-16T10:47:16.840Z,21.90
2017-10-16T10:49:45.125Z,21.90
2017-10-16T10:52:14.928Z,21.90
2017-10-16T10:54:43.300Z,21.90
2017-10-16T10:57:11.564Z,22.00
2017-10-16T10:59:39.868Z,22.00
2017-10-16T11:02:08.122Z,22.00
2017-10-16T11:04:36.398Z,22.10
2017-10-16T11:07:04.667Z,22.10
2017-10-16T11:09:32.960Z,22.20
2017-10-16T11:12:01.226Z,22.30
2017-10-16T11:14:29.516Z,22.30
2017-10-16T11:16:57.790Z,22.10
2017-10-16T11:19:26.072Z,22.30
2017-10-16T11:21:54.352Z,22.50
2017-10-16T11:24:22.726Z,22.50
2017-10-16T11:26:51.017Z,22.60
2017-10-16T11:29:19.289Z,22.70
2017-10-16T11:31:47.669Z,22.90
2017-10-16T11:34:15.949Z,22.90
2017-10-16T11:36:44.225Z,22.90
2017-10-16T11:39:12.478Z,23.00
2017-10-16T11:41:40.757Z,23.00
2017-10-16T11:44:09.052Z,23.10
2017-10-16T11:46:37.422Z,23.20
2017-10-16T11:49:05.708Z,23.20
2017-10-16T11:51:33.993Z,23.30
2017-10-16T11:54:02.265Z,23.50
2017-10-16T11:56:32.079Z,23.50
2017-10-16T11:59:00.461Z,23.50
2017-10-16T12:01:28.852Z,23.60
2017-10-16T12:03:57.221Z,23.70
2017-10-16T12:06:25.602Z,23.70
2017-10-16T12:08:53.877Z,23.70
2017-10-16T12:11:22.254Z,23.70
2017-10-16T12:13:50.540Z,23.70
2017-10-16T12:16:18.823Z,23.80
2017-10-16T12:18:47.194Z,23.80
2017-10-16T12:21:15.489Z,23.90
2017-10-16T12:23:44.562Z,24.00
2017-10-16T12:26:12.946Z,23.90
2017-10-16T12:28:41.204Z,24.10
2017-10-16T12:31:09.481Z,24.10
2017-10-16T12:33:37.764Z,24.20
2017-10-16T12:36:06.140Z,24.30
2017-10-16T12:38:34.398Z,24.40
2017-10-16T12:41:02.677Z,24.40
2017-10-16T12:43:30.941Z,24.50
2017-10-16T12:45:59.224Z,24.50
2017-10-16T12:48:27.505Z,24.70
2017-10-16T12:50:55.808Z,24.80
2017-10-16T12:53:24.196Z,24.80
2017-10-16T12:55:53.246Z,24.70
2017-10-16T12:58:21.513Z,24.70
2017-10-16T13:00:49.803Z,24.80
2017-10-16T13:03:18.053Z,24.70
2017-10-16T13:05:46.337Z,24.90
2017-10-16T13:08:15.371Z,25.00
2017-10-16T13:10:43.769Z,24.90
2017-10-16T13:13:12.045Z,24.80
2017-10-16T13:15:40.325Z,24.60
2017-10-16T13:18:08.593Z,24.80
2017-10-16T13:20:36.873Z,24.80
2017-10-16T13:23:05.145Z,25.10
2017-10-16T13:25:33.522Z,24.90
2017-10-16T13:28:01.913Z,24.90
2017-10-16T13:30:30.167Z,25.10
2017-10-16T13:32:58.557Z,25.20
2017-10-16T13:35:26.809Z,25.30
2017-10-16T13:37:55.085Z,25.30
2017-10-16T13:40:23.390Z,25.50
2017-10-16T13:42:51.671Z,25.70
2017-10-16T13:45:19.939Z,25.80
2017-10-16T13:47:48.321Z,25.70
2017-10-16T13:50:16.572Z,25.80
2017-10-16T13:52:44.845Z,25.80
2017-10-16T13:55:13.151Z,26.20
2017-10-16T13:57:41.428Z,26.70
2017-10-16T14:00:09.817Z,27.60
2017-10-16T14:02:38.103Z,28.30
2017-10-16T14:05:06.353Z,29.50
2017-10-16T14:07:34.744Z,29.80
2017-10-16T14:10:03.002Z,30.10
2017-10-16T14:12:31.300Z,30.70
2017-10-16T14:14:59.561Z,30.80
2017-10-16T14:17:27.844Z,31.20
2017-10-16T14:19:56.110Z,31.50
2017-10-16T14:22:24.405Z,31.50
2017-10-16T14:24:52.660Z,31.30
2017-10-16T14:27:20.947Z,31.20
2017-10-16T14:29:49.240Z,31.20
2017-10-16T14:32:17.616Z,30.70
2017-10-16T14:34:45.892Z,30.20
2017-10-16T14:37:14.170Z,29.70
2017-10-16T14:39:42.488Z,29.60
2017-10-16T14:42:11.544Z,28.80
2017-10-16T14:44:40.185Z,28.80
2017-10-16T14:47:08.667Z,28.80
2017-10-16T14:49:40.027Z,28.70
2017-10-16T14:52:09.112Z,28.00
2017-10-16T14:54:38.160Z,27.80
2017-10-16T14:57:07.333Z,27.60
2017-10-16T14:59:35.813Z,27.60
2017-10-16T15:02:07.090Z,27.00
2017-10-16T15:04:35.828Z,27.00
2017-10-16T15:07:04.213Z,26.70
2017-10-16T15:09:33.291Z,26.70
2017-10-16T15:12:01.583Z,26.60
2017-10-16T15:14:29.897Z,26.70
2017-10-16T15:16:58.297Z,26.30
2017-10-16T15:19:26.592Z,26.20
2017-10-16T15:21:55.756Z,25.50
2017-10-16T15:24:24.136Z,25.40
2017-10-16T15:26:52.820Z,25.40
2017-10-16T15:29:21.227Z,24.80
2017-10-16T15:31:49.538Z,24.60
2017-10-16T15:34:18.582Z,24.40
2017-10-16T15:36:46.862Z,24.40
2017-10-16T15:39:15.154Z,24.30
2017-10-16T15:41:43.428Z,24.00
2017-10-16T15:44:11.821Z,23.70
2017-10-16T15:46:40.239Z,23.50
2017-10-16T15:49:08.513Z,23.20
2017-10-16T15:51:36.794Z,23.00
2017-10-16T15:54:05.096Z,22.90
2017-10-16T15:56:35.293Z,22.50
2017-10-16T15:59:03.606Z,22.50
2017-10-16T16:01:31.874Z,22.30
2017-10-16T16:04:00.159Z,22.10
2017-10-16T16:06:28.641Z,22.00
2017-10-16T16:08:57.022Z,21.80
2017-10-16T16:11:25.297Z,21.70
2017-10-16T16:13:53.601Z,21.50
2017-10-16T16:16:21.885Z,21.40
2017-10-16T16:18:50.187Z,21.20
2017-10-16T16:21:18.466Z,21.10
2017-10-16T16:23:46.799Z,20.90
2017-10-16T16:26:15.169Z,20.80
2017-10-16T16:28:43.542Z,20.70
2017-10-16T16:31:11.818Z,20.50
2017-10-16T16:33:40.134Z,20.40
2017-10-16T16:36:08.413Z,20.30
2017-10-16T16:38:36.714Z,20.30
2017-10-16T16:41:04.998Z,20.20
2017-10-16T16:43:33.305Z,20.10
2017-10-16T16:46:02.362Z,20.00
2017-10-16T16:48:31.484Z,20.00
2017-10-16T16:51:00.610Z,19.80
2017-10-16T16:53:29.075Z,19.80
2017-10-16T16:55:57.418Z,19.80
2017-10-16T16:58:25.694Z,19.70
2017-10-16T17:00:53.982Z,19.60
2017-10-16T17:03:22.364Z,19.60
2017-10-16T17:05:51.087Z,19.60
2017-10-16T17:08:19.356Z,19.50
2017-10-16T17:10:47.653Z,19.50
2017-10-16T17:13:15.985Z,19.40
2017-10-16T17:15:45.037Z,19.40
2017-10-16T17:18:13.390Z,19.40
2017-10-16T17:20:41.731Z,19.40
2017-10-16T17:23:10.089Z,19.30
2017-10-16T17:25:38.392Z,19.30
2017-10-16T17:28:06.674Z,19.20
2017-10-16T17:30:34.990Z,19.20
2017-10-16T17:33:03.254Z,19.10
2017-10-16T17:35:32.418Z,19.00
2017-10-16T17:38:00.796Z,19.00
2017-10-16T17:40:29.078Z,19.00
2017-10-16T17:42:57.348Z,19.00
2017-10-16T17:45:25.708Z,18.90
2017-10-16T17:47:54.025Z,18.90
2017-10-16T17:50:22.405Z,18.80
2017-10-16T17:52:50.802Z,18.80
2017-10-16T17:55:19.085Z,18.70
2017-10-16T17:57:47.454Z,18.70
2017-10-16T18:00:16.511Z,18.60
2017-10-16T18:02:44.791Z,18.60
2017-10-16T18:05:13.089Z,18.60
2017-10-16T18:07:41.381Z,18.60
2017-10-16T18:10:09.758Z,18.50
2017-10-16T18:12:38.050Z,18.50
2017-10-16T18:15:06.402Z,18.50
2017-10-16T18:17:34.698Z,18.40
2017-10-16T18:20:03.073Z,18.40
2017-10-16T18:22:31.441Z,18.40
2017-10-16T18:24:59.717Z,18.40
2017-10-16T18:27:28.013Z,18.40
2017-10-16T18:29:56.286Z,18.40
2017-10-16T18:32:24.583Z,18.30
2017-10-16T18:34:53.616Z,18.20
2017-10-16T18:37:21.921Z,18.20
2017-10-16T18:39:50.182Z,18.30
2017-10-16T18:42:18.509Z,18.20
2017-10-16T18:44:47.585Z,18.20
2017-10-16T18:47:15.873Z,18.10
2017-10-16T18:49:44.938Z,18.10
2017-10-16T18:52:13.320Z,18.10
2017-10-16T18:54:41.605Z,18.00
2017-10-16T18:57:10.717Z,17.90
2017-10-16T18:59:40.600Z,17.90
2017-10-16T19:02:09.026Z,17.90
2017-10-16T19:04:37.352Z,17.90
2017-10-16T19:07:06.430Z,17.80
2017-10-16T19:09:36.259Z,17.80
2017-10-16T19:12:04.608Z,17.80
2017-10-16T19:14:33.039Z,17.80
2017-10-16T19:17:01.450Z,17.80
2017-10-16T19:19:31.470Z,17.80
2017-10-16T19:21:59.760Z,17.70
2017-10-16T19:24:28.125Z,17.70
2017-10-16T19:26:56.417Z,17.70
2017-10-16T19:29:24.706Z,17.70
2017-10-16T19:31:53.046Z,17.60
2017-10-16T19:34:21.325Z,17.60
2017-10-16T19:36:49.749Z,17.60
2017-10-16T19:39:18.826Z,17.60
2017-10-16T19:41:47.108Z,17.50
2017-10-16T19:44:15.378Z,17.50
2017-10-16T19:46:43.675Z,17.50
2017-10-16T19:49:12.725Z,17.50
2017-10-16T19:51:41.026Z,17.50
2017-10-16T19:54:09.307Z,17.40
2017-10-16T19:56:37.626Z,17.40
2017-10-16T19:59:05.906Z,17.40
2017-10-16T20:01:34.227Z,17.30
2017-10-16T20:04:02.492Z,17.30
2017-10-16T20:06:30.793Z,17.30
2017-10-16T20:08:59.857Z,17.30
2017-10-16T20:11:28.136Z,17.30
2017-10-16T20:13:56.430Z,17.30
2017-10-16T20:16:24.689Z,17.20
2017-10-16T20:18:52.994Z,17.20
2017-10-16T20:21:21.379Z,17.20
2017-10-16T20:23:49.661Z,17.20
2017-10-16T20:26:17.958Z,17.20
2017-10-16T20:28:47.027Z,17.10
2017-10-16T20:31:15.322Z,17.10
2017-10-16T20:33:43.633Z,17.10
2017-10-16T20:36:11.900Z,17.10
2017-10-16T20:38:40.255Z,17.10
2017-10-16T20:41:09.297Z,17.10
2017-10-16T20:43:37.592Z,17.10
2017-10-16T20:46:05.869Z,17.00
2017-10-16T20:48:34.173Z,17.00
2017-10-16T20:51:02.809Z,16.90
2017-10-16T20:53:31.139Z,16.90
2017-10-16T20:55:59.400Z,16.90
2017-10-16T20:58:27.784Z,16.90
2017-10-16T21:00:56.076Z,16.90
2017-10-16T21:03:24.461Z,16.90
2017-10-16T21:05:52.734Z,16.90
2017-10-16T21:08:21.033Z,16.80
2017-10-16T21:10:49.310Z,16.80
2017-10-16T21:13:18.369Z,16.80
2017-10-16T21:15:46.697Z,16.80
2017-10-16T21:18:15.013Z,16.80
2017-10-16T21:20:43.398Z,16.80
2017-10-16T21:23:11.680Z,16.80
2017-10-16T21:25:39.960Z,16.80
2017-10-16T21:28:08.331Z,16.80
2017-10-16T21:30:36.613Z,16.80
2017-10-16T21:33:06.416Z,16.80
2017-10-16T21:35:35.106Z,16.80
2017-10-16T21:38:03.425Z,16.80
2017-10-16T21:40:32.463Z,16.80
2017-10-16T21:43:00.758Z,16.70
2017-10-16T21:45:29.031Z,16.80
2017-10-16T21:47:57.343Z,16.80
2017-10-16T21:50:26.406Z,16.80
2017-10-16T21:52:54.697Z,16.80
2017-10-16T21:55:22.957Z,16.80
2017-10-16T21:57:51.289Z,16.70
2017-10-16T22:00:20.346Z,16.70
2017-10-16T22:02:48.651Z,16.70
2017-10-16T22:05:17.721Z,16.70
2017-10-16T22:07:46.085Z,16.70
2017-10-16T22:10:14.365Z,16.70
2017-10-16T22:12:42.654Z,16.60
2017-10-16T22:15:10.925Z,16.60
2017-10-16T22:17:39.231Z,16.60
2017-10-16T22:20:08.289Z,16.60
2017-10-16T22:22:36.588Z,16.50
2017-10-16T22:25:04.877Z,16.60
2017-10-16T22:27:34.063Z,16.60
2017-10-16T22:30:02.325Z,16.50
2017-10-16T22:32:30.646Z,16.50
2017-10-16T22:34:58.922Z,16.50
2017-10-16T22:37:27.245Z,16.60
2017-10-16T22:39:55.533Z,16.50
2017-10-16T22:42:23.918Z,16.50
2017-10-16T22:44:52.197Z,16.50
2017-10-16T22:47:21.389Z,16.50
2017-10-16T22:49:49.665Z,16.50
2017-10-16T22:52:17.934Z,16.50
2017-10-16T22:54:47.037Z,16.50
2017-10-16T22:57:15.335Z,16.50
2017-10-16T22:59:44.394Z,16.50
2017-10-16T23:02:12.667Z,16.50
2017-10-16T23:04:41.059Z,16.50
2017-10-16T23:07:09.338Z,16.50
2017-10-16T23:09:37.820Z,16.50
2017-10-16T23:12:06.101Z,16.40
2017-10-16T23:14:34.386Z,16.40
2017-10-16T23:17:02.656Z,16.40
2017-10-16T23:19:31.032Z,16.40
2017-10-16T23:21:59.296Z,16.40
2017-10-16T23:24:27.589Z,16.40
2017-10-16T23:26:55.869Z,16.40
2017-10-16T23:29:24.241Z,16.40
2017-10-16T23:31:52.624Z,16.30
2017-10-16T23:34:20.922Z,16.30
2017-10-16T23:36:49.965Z,16.20
2017-10-16T23:39:18.269Z,16.20
2017-10-16T23:41:46.754Z,16.30
2017-10-16T23:44:15.030Z,16.20
2017-10-16T23:46:43.512Z,16.30
2017-10-16T23:49:11.882Z,16.20
2017-10-16T23:51:40.166Z,16.10
2017-10-16T23:54:08.555Z,16.10
2017-10-16T23:56:38.325Z,16.00
2017-10-16T23:59:06.610Z,16.10
